sensor_id;sensor_type;location;lat;lon;timestamp;P1;durP1;ratioP1;P2;durP2;ratioP2
12867;SDS011;33517;49.866;8.320;2023-02-28T00:00:35;0.20;;;0.20;;
12867;SDS011;33517;49.866;8.320;2023-02-28T00:03:27;0.28;;;0.28;;
12867;SDS011;33517;49.866;8.320;2023-02-28T00:06:19;0.20;;;0.20;;
12867;SDS011;33517;49.866;8.320;2023-02-28T00:09:12;0.20;;;0.20;;
12867;SDS011;33517;49.866;8.320;2023-02-28T00:12:05;0.50;;;0.50;;
12867;SDS011;33517;49.866;8.320;2023-02-28T00:15:00;0.22;;;0.22;;
12867;SDS011;33517;49.866;8.320;2023-02-28T00:17:52;1.02;;;0.93;;
12867;SDS011;33517;49.866;8.320;2023-02-28T00:20:44;0.30;;;0.30;;
12867;SDS011;33517;49.866;8.320;2023-02-28T00:23:36;0.38;;;0.38;;
12867;SDS011;33517;49.866;8.320;2023-02-28T00:26:28;0.30;;;0.30;;
12867;SDS011;33517;49.866;8.320;2023-02-28T00:29:22;0.35;;;0.30;;
12867;SDS011;33517;49.866;8.320;2023-02-28T00:32:13;0.10;;;0.10;;
12867;SDS011;33517;49.866;8.320;2023-02-28T00:35:06;0.20;;;0.20;;
12867;SDS011;33517;49.866;8.320;2023-02-28T00:37:59;0.35;;;0.35;;
12867;SDS011;33517;49.866;8.320;2023-02-28T00:40:51;0.20;;;0.20;;
12867;SDS011;33517;49.866;8.320;2023-02-28T00:43:42;0.30;;;0.30;;
12867;SDS011;33517;49.866;8.320;2023-02-28T00:46:36;1.13;;;1.05;;
12867;SDS011;33517;49.866;8.320;2023-02-28T00:49:28;0.63;;;0.63;;
12867;SDS011;33517;49.866;8.320;2023-02-28T00:52:19;0.22;;;0.22;;
12867;SDS011;33517;49.866;8.320;2023-02-28T00:55:11;0.20;;;0.20;;
12867;SDS011;33517;49.866;8.320;2023-02-28T00:58:03;0.93;;;0.45;;
12867;SDS011;33517;49.866;8.320;2023-02-28T01:00:55;1.35;;;1.25;;
12867;SDS011;33517;49.866;8.320;2023-02-28T01:03:48;0.20;;;0.20;;
12867;SDS011;33517;49.866;8.320;2023-02-28T01:06:40;0.30;;;0.30;;
12867;SDS011;33517;49.866;8.320;2023-02-28T01:09:32;0.45;;;0.45;;
12867;SDS011;33517;49.866;8.320;2023-02-28T01:12:24;0.20;;;0.20;;
12867;SDS011;33517;49.866;8.320;2023-02-28T01:15:16;0.10;;;0.10;;
12867;SDS011;33517;49.866;8.320;2023-02-28T01:18:08;0.30;;;0.30;;
12867;SDS011;33517;49.866;8.320;2023-02-28T01:21:04;0.20;;;0.20;;
12867;SDS011;33517;49.866;8.320;2023-02-28T01:23:56;0.30;;;0.30;;
12867;SDS011;33517;49.866;8.320;2023-02-28T01:26:49;0.35;;;0.35;;
12867;SDS011;33517;49.866;8.320;2023-02-28T01:29:41;0.40;;;0.40;;
12867;SDS011;33517;49.866;8.320;2023-02-28T01:32:32;0.10;;;0.10;;
12867;SDS011;33517;49.866;8.320;2023-02-28T01:35:24;0.20;;;0.20;;
12867;SDS011;33517;49.866;8.320;2023-02-28T01:38:18;0.30;;;0.30;;
12867;SDS011;33517;49.866;8.320;2023-02-28T01:41:11;0.20;;;0.20;;
12867;SDS011;33517;49.866;8.320;2023-02-28T01:44:07;0.45;;;0.45;;
12867;SDS011;33517;49.866;8.320;2023-02-28T01:47:38;1.40;;;1.33;;
12867;SDS011;33517;49.866;8.320;2023-02-28T01:50:33;0.20;;;0.20;;
12867;SDS011;33517;49.866;8.320;2023-02-28T01:53:29;0.52;;;0.50;;
12867;SDS011;33517;49.866;8.320;2023-02-28T01:56:26;0.17;;;0.17;;
12867;SDS011;33517;49.866;8.320;2023-02-28T01:59:22;0.20;;;0.20;;
12867;SDS011;33517;49.866;8.320;2023-02-28T02:02:19;0.20;;;0.20;;
12867;SDS011;33517;49.866;8.320;2023-02-28T02:05:14;0.20;;;0.20;;
12867;SDS011;33517;49.866;8.320;2023-02-28T02:08:08;0.40;;;0.40;;
12867;SDS011;33517;49.866;8.320;2023-02-28T02:11:04;0.20;;;0.20;;
12867;SDS011;33517;49.866;8.320;2023-02-28T02:14:08;0.20;;;0.20;;
12867;SDS011;33517;49.866;8.320;2023-02-28T02:17:10;0.30;;;0.30;;
12867;SDS011;33517;49.866;8.320;2023-02-28T02:27:36;0.20;;;0.20;;
12867;SDS011;33517;49.866;8.320;2023-02-28T02:30:44;0.40;;;0.40;;
12867;SDS011;33517;49.866;8.320;2023-02-28T02:34:06;17.92;;;0.90;;
12867;SDS011;33517;49.866;8.320;2023-02-28T02:37:14;0.10;;;0.10;;
12867;SDS011;33517;49.866;8.320;2023-02-28T02:40:14;0.40;;;0.40;;
12867;SDS011;33517;49.866;8.320;2023-02-28T02:43:11;0.20;;;0.20;;
12867;SDS011;33517;49.866;8.320;2023-02-28T02:46:09;0.63;;;0.63;;
12867;SDS011;33517;49.866;8.320;2023-02-28T02:49:08;0.20;;;0.20;;
12867;SDS011;33517;49.866;8.320;2023-02-28T02:52:03;0.63;;;0.63;;
12867;SDS011;33517;49.866;8.320;2023-02-28T02:54:57;0.50;;;0.50;;
12867;SDS011;33517;49.866;8.320;2023-02-28T02:57:52;0.73;;;0.73;;
12867;SDS011;33517;49.866;8.320;2023-02-28T03:00:47;0.15;;;0.15;;
12867;SDS011;33517;49.866;8.320;2023-02-28T03:03:43;0.50;;;0.50;;
12867;SDS011;33517;49.866;8.320;2023-02-28T03:06:38;0.52;;;0.52;;
12867;SDS011;33517;49.866;8.320;2023-02-28T03:09:32;0.10;;;0.10;;
12867;SDS011;33517;49.866;8.320;2023-02-28T03:12:27;0.10;;;0.10;;
12867;SDS011;33517;49.866;8.320;2023-02-28T03:15:41;0.47;;;0.47;;
12867;SDS011;33517;49.866;8.320;2023-02-28T03:18:43;0.20;;;0.20;;
12867;SDS011;33517;49.866;8.320;2023-02-28T03:21:47;0.17;;;0.17;;
12867;SDS011;33517;49.866;8.320;2023-02-28T03:24:49;0.43;;;0.43;;
12867;SDS011;33517;49.866;8.320;2023-02-28T03:27:48;0.65;;;0.55;;
12867;SDS011;33517;49.866;8.320;2023-02-28T03:30:47;0.10;;;0.10;;
12867;SDS011;33517;49.866;8.320;2023-02-28T03:33:44;0.52;;;0.52;;
12867;SDS011;33517;49.866;8.320;2023-02-28T03:36:47;0.20;;;0.20;;
12867;SDS011;33517;49.866;8.320;2023-02-28T03:39:41;0.25;;;0.25;;
12867;SDS011;33517;49.866;8.320;2023-02-28T03:42:36;1.55;;;0.73;;
12867;SDS011;33517;49.866;8.320;2023-02-28T03:45:32;0.30;;;0.30;;
12867;SDS011;33517;49.866;8.320;2023-02-28T03:48:29;0.30;;;0.30;;
12867;SDS011;33517;49.866;8.320;2023-02-28T03:51:26;0.43;;;0.43;;
12867;SDS011;33517;49.866;8.320;2023-02-28T03:54:23;0.20;;;0.20;;
12867;SDS011;33517;49.866;8.320;2023-02-28T03:57:21;0.43;;;0.43;;
12867;SDS011;33517;49.866;8.320;2023-02-28T04:00:19;1.55;;;0.70;;
12867;SDS011;33517;49.866;8.320;2023-02-28T04:03:14;0.28;;;0.28;;
12867;SDS011;33517;49.866;8.320;2023-02-28T04:06:07;0.45;;;0.40;;
12867;SDS011;33517;49.866;8.320;2023-02-28T04:09:05;0.25;;;0.25;;
12867;SDS011;33517;49.866;8.320;2023-02-28T04:11:59;0.25;;;0.25;;
12867;SDS011;33517;49.866;8.320;2023-02-28T04:14:51;0.63;;;0.63;;
12867;SDS011;33517;49.866;8.320;2023-02-28T04:17:43;0.35;;;0.30;;
12867;SDS011;33517;49.866;8.320;2023-02-28T04:20:35;0.13;;;0.13;;
12867;SDS011;33517;49.866;8.320;2023-02-28T04:23:27;0.22;;;0.22;;
12867;SDS011;33517;49.866;8.320;2023-02-28T04:26:19;1.05;;;0.55;;
12867;SDS011;33517;49.866;8.320;2023-02-28T04:29:13;0.50;;;0.50;;
12867;SDS011;33517;49.866;8.320;2023-02-28T04:32:05;0.30;;;0.30;;
12867;SDS011;33517;49.866;8.320;2023-02-28T04:34:57;0.60;;;0.60;;
12867;SDS011;33517;49.866;8.320;2023-02-28T04:37:49;0.40;;;0.40;;
12867;SDS011;33517;49.866;8.320;2023-02-28T04:40:41;0.68;;;0.50;;
12867;SDS011;33517;49.866;8.320;2023-02-28T04:43:33;0.35;;;0.35;;
12867;SDS011;33517;49.866;8.320;2023-02-28T04:46:26;0.20;;;0.20;;
12867;SDS011;33517;49.866;8.320;2023-02-28T04:49:18;0.20;;;0.20;;
12867;SDS011;33517;49.866;8.320;2023-02-28T04:52:10;0.32;;;0.32;;
12867;SDS011;33517;49.866;8.320;2023-02-28T04:55:03;9.85;;;0.80;;
12867;SDS011;33517;49.866;8.320;2023-02-28T04:57:56;0.10;;;0.10;;
12867;SDS011;33517;49.866;8.320;2023-02-28T05:00:48;0.38;;;0.38;;
12867;SDS011;33517;49.866;8.320;2023-02-28T05:03:41;0.52;;;0.52;;
12867;SDS011;33517;49.866;8.320;2023-02-28T05:06:34;0.52;;;0.52;;
12867;SDS011;33517;49.866;8.320;2023-02-28T05:09:25;0.20;;;0.20;;
12867;SDS011;33517;49.866;8.320;2023-02-28T05:12:17;0.40;;;0.40;;
12867;SDS011;33517;49.866;8.320;2023-02-28T05:15:10;0.35;;;0.35;;
12867;SDS011;33517;49.866;8.320;2023-02-28T05:18:04;0.28;;;0.28;;
12867;SDS011;33517;49.866;8.320;2023-02-28T05:20:57;0.20;;;0.20;;
12867;SDS011;33517;49.866;8.320;2023-02-28T05:23:52;0.22;;;0.22;;
12867;SDS011;33517;49.866;8.320;2023-02-28T05:26:46;0.32;;;0.32;;
12867;SDS011;33517;49.866;8.320;2023-02-28T05:29:38;0.13;;;0.13;;
12867;SDS011;33517;49.866;8.320;2023-02-28T05:32:33;0.45;;;0.45;;
12867;SDS011;33517;49.866;8.320;2023-02-28T05:35:26;0.38;;;0.38;;
12867;SDS011;33517;49.866;8.320;2023-02-28T05:38:19;0.43;;;0.43;;
12867;SDS011;33517;49.866;8.320;2023-02-28T05:41:11;0.20;;;0.20;;
12867;SDS011;33517;49.866;8.320;2023-02-28T05:44:03;0.20;;;0.20;;
12867;SDS011;33517;49.866;8.320;2023-02-28T05:46:55;0.25;;;0.25;;
12867;SDS011;33517;49.866;8.320;2023-02-28T05:49:46;0.45;;;0.45;;
12867;SDS011;33517;49.866;8.320;2023-02-28T05:52:38;0.38;;;0.32;;
12867;SDS011;33517;49.866;8.320;2023-02-28T05:55:32;0.65;;;0.65;;
12867;SDS011;33517;49.866;8.320;2023-02-28T05:58:26;0.17;;;0.17;;
12867;SDS011;33517;49.866;8.320;2023-02-28T06:01:22;0.35;;;0.35;;
12867;SDS011;33517;49.866;8.320;2023-02-28T06:04:17;0.13;;;0.13;;
12867;SDS011;33517;49.866;8.320;2023-02-28T06:07:10;0.17;;;0.17;;
12867;SDS011;33517;49.866;8.320;2023-02-28T06:10:03;0.57;;;0.55;;
12867;SDS011;33517;49.866;8.320;2023-02-28T06:12:56;0.50;;;0.50;;
12867;SDS011;33517;49.866;8.320;2023-02-28T06:15:51;0.60;;;0.60;;
12867;SDS011;33517;49.866;8.320;2023-02-28T06:18:42;0.80;;;0.73;;
12867;SDS011;33517;49.866;8.320;2023-02-28T06:21:34;0.22;;;0.22;;
12867;SDS011;33517;49.866;8.320;2023-02-28T06:24:27;1.13;;;1.05;;
12867;SDS011;33517;49.866;8.320;2023-02-28T06:27:21;0.50;;;0.50;;
12867;SDS011;33517;49.866;8.320;2023-02-28T06:30:15;0.38;;;0.38;;
12867;SDS011;33517;49.866;8.320;2023-02-28T06:33:07;0.63;;;0.57;;
12867;SDS011;33517;49.866;8.320;2023-02-28T06:35:59;0.40;;;0.40;;
12867;SDS011;33517;49.866;8.320;2023-02-28T06:38:51;0.40;;;0.40;;
12867;SDS011;33517;49.866;8.320;2023-02-28T06:41:45;0.22;;;0.22;;
12867;SDS011;33517;49.866;8.320;2023-02-28T06:44:38;1.08;;;0.63;;
12867;SDS011;33517;49.866;8.320;2023-02-28T06:47:31;1.08;;;1.02;;
12867;SDS011;33517;49.866;8.320;2023-02-28T06:50:23;0.20;;;0.20;;
12867;SDS011;33517;49.866;8.320;2023-02-28T06:53:15;0.52;;;0.52;;
12867;SDS011;33517;49.866;8.320;2023-02-28T06:56:08;0.20;;;0.20;;
12867;SDS011;33517;49.866;8.320;2023-02-28T06:59:01;1.13;;;1.10;;
12867;SDS011;33517;49.866;8.320;2023-02-28T07:01:53;0.52;;;0.52;;
12867;SDS011;33517;49.866;8.320;2023-02-28T07:04:47;0.35;;;0.35;;
12867;SDS011;33517;49.866;8.320;2023-02-28T07:07:39;0.88;;;0.88;;
12867;SDS011;33517;49.866;8.320;2023-02-28T07:10:34;0.55;;;0.55;;
12867;SDS011;33517;49.866;8.320;2023-02-28T07:13:28;1.15;;;0.60;;
12867;SDS011;33517;49.866;8.320;2023-02-28T07:16:20;0.40;;;0.40;;
12867;SDS011;33517;49.866;8.320;2023-02-28T07:19:13;1.08;;;0.60;;
12867;SDS011;33517;49.866;8.320;2023-02-28T07:22:06;1.45;;;1.35;;
12867;SDS011;33517;49.866;8.320;2023-02-28T07:24:58;1.00;;;1.00;;
12867;SDS011;33517;49.866;8.320;2023-02-28T07:27:50;0.68;;;0.47;;
12867;SDS011;33517;49.866;8.320;2023-02-28T07:30:42;1.30;;;1.20;;
12867;SDS011;33517;49.866;8.320;2023-02-28T07:33:34;1.48;;;1.38;;
12867;SDS011;33517;49.866;8.320;2023-02-28T07:36:25;0.63;;;0.63;;
12867;SDS011;33517;49.866;8.320;2023-02-28T07:39:19;1.05;;;0.95;;
12867;SDS011;33517;49.866;8.320;2023-02-28T07:42:11;2.22;;;1.52;;
12867;SDS011;33517;49.866;8.320;2023-02-28T07:45:04;0.68;;;0.68;;
12867;SDS011;33517;49.866;8.320;2023-02-28T07:47:56;0.68;;;0.68;;
12867;SDS011;33517;49.866;8.320;2023-02-28T07:50:53;0.77;;;0.77;;
12867;SDS011;33517;49.866;8.320;2023-02-28T07:53:46;0.68;;;0.68;;
12867;SDS011;33517;49.866;8.320;2023-02-28T07:56:39;0.98;;;0.95;;
12867;SDS011;33517;49.866;8.320;2023-02-28T07:59:31;0.20;;;0.20;;
12867;SDS011;33517;49.866;8.320;2023-02-28T08:02:23;0.60;;;0.60;;
12867;SDS011;33517;49.866;8.320;2023-02-28T08:05:15;0.68;;;0.68;;
12867;SDS011;33517;49.866;8.320;2023-02-28T08:08:07;0.68;;;0.60;;
12867;SDS011;33517;49.866;8.320;2023-02-28T08:10:59;0.32;;;0.32;;
12867;SDS011;33517;49.866;8.320;2023-02-28T08:13:54;0.50;;;0.50;;
12867;SDS011;33517;49.866;8.320;2023-02-28T08:16:46;0.30;;;0.30;;
12867;SDS011;33517;49.866;8.320;2023-02-28T08:19:37;1.05;;;0.55;;
12867;SDS011;33517;49.866;8.320;2023-02-28T08:22:29;0.43;;;0.43;;
12867;SDS011;33517;49.866;8.320;2023-02-28T08:25:21;0.22;;;0.22;;
12867;SDS011;33517;49.866;8.320;2023-02-28T08:28:13;0.32;;;0.32;;
12867;SDS011;33517;49.866;8.320;2023-02-28T08:31:10;0.20;;;0.20;;
12867;SDS011;33517;49.866;8.320;2023-02-28T08:34:04;1.23;;;0.60;;
12867;SDS011;33517;49.866;8.320;2023-02-28T08:36:57;2.10;;;0.88;;
12867;SDS011;33517;49.866;8.320;2023-02-28T08:39:49;0.20;;;0.20;;
12867;SDS011;33517;49.866;8.320;2023-02-28T08:42:41;0.20;;;0.20;;
12867;SDS011;33517;49.866;8.320;2023-02-28T08:45:33;0.20;;;0.20;;
12867;SDS011;33517;49.866;8.320;2023-02-28T08:48:27;0.45;;;0.45;;
12867;SDS011;33517;49.866;8.320;2023-02-28T08:51:21;1.08;;;0.98;;
12867;SDS011;33517;49.866;8.320;2023-02-28T08:54:16;1.63;;;1.02;;
12867;SDS011;33517;49.866;8.320;2023-02-28T08:57:09;1.90;;;1.75;;
12867;SDS011;33517;49.866;8.320;2023-02-28T09:00:02;0.60;;;0.60;;
12867;SDS011;33517;49.866;8.320;2023-02-28T09:02:54;3.10;;;1.30;;
12867;SDS011;33517;49.866;8.320;2023-02-28T09:05:55;1.55;;;0.90;;
12867;SDS011;33517;49.866;8.320;2023-02-28T09:08:48;1.20;;;1.10;;
12867;SDS011;33517;49.866;8.320;2023-02-28T09:11:40;2.05;;;1.10;;
12867;SDS011;33517;49.866;8.320;2023-02-28T09:14:32;1.08;;;0.98;;
12867;SDS011;33517;49.866;8.320;2023-02-28T09:17:24;1.20;;;1.10;;
12867;SDS011;33517;49.866;8.320;2023-02-28T09:20:16;1.88;;;1.15;;
12867;SDS011;33517;49.866;8.320;2023-02-28T09:23:10;1.00;;;1.00;;
12867;SDS011;33517;49.866;8.320;2023-02-28T09:26:03;0.60;;;0.60;;
12867;SDS011;33517;49.866;8.320;2023-02-28T09:28:56;1.02;;;1.00;;
12867;SDS011;33517;49.866;8.320;2023-02-28T09:31:49;0.80;;;0.80;;
12867;SDS011;33517;49.866;8.320;2023-02-28T09:34:41;1.17;;;1.10;;
12867;SDS011;33517;49.866;8.320;2023-02-28T09:37:32;1.90;;;1.60;;
12867;SDS011;33517;49.866;8.320;2023-02-28T09:40:26;2.75;;;1.40;;
12867;SDS011;33517;49.866;8.320;2023-02-28T09:43:18;1.50;;;1.20;;
12867;SDS011;33517;49.866;8.320;2023-02-28T09:46:17;1.08;;;0.95;;
12867;SDS011;33517;49.866;8.320;2023-02-28T09:49:24;4.10;;;1.55;;
12867;SDS011;33517;49.866;8.320;2023-02-28T09:52:21;1.30;;;1.20;;
12867;SDS011;33517;49.866;8.320;2023-02-28T09:55:20;1.98;;;1.08;;
12867;SDS011;33517;49.866;8.320;2023-02-28T09:58:20;1.95;;;1.85;;
12867;SDS011;33517;49.866;8.320;2023-02-28T10:01:20;1.17;;;1.08;;
12867;SDS011;33517;49.866;8.320;2023-02-28T10:04:18;0.68;;;0.68;;
12867;SDS011;33517;49.866;8.320;2023-02-28T10:07:33;2.67;;;1.70;;
12867;SDS011;33517;49.866;8.320;2023-02-28T10:10:37;1.35;;;1.17;;
12867;SDS011;33517;49.866;8.320;2023-02-28T10:13:33;1.70;;;1.42;;
12867;SDS011;33517;49.866;8.320;2023-02-28T10:16:28;1.25;;;1.15;;
12867;SDS011;33517;49.866;8.320;2023-02-28T10:19:26;1.50;;;1.38;;
12867;SDS011;33517;49.866;8.320;2023-02-28T10:22:24;2.00;;;1.80;;
12867;SDS011;33517;49.866;8.320;2023-02-28T10:25:20;1.80;;;1.70;;
12867;SDS011;33517;49.866;8.320;2023-02-28T10:28:14;1.88;;;1.63;;
12867;SDS011;33517;49.866;8.320;2023-02-28T10:31:09;1.52;;;1.27;;
12867;SDS011;33517;49.866;8.320;2023-02-28T10:34:07;1.83;;;1.60;;
12867;SDS011;33517;49.866;8.320;2023-02-28T10:37:03;1.30;;;1.15;;
12867;SDS011;33517;49.866;8.320;2023-02-28T10:39:59;1.92;;;1.55;;
12867;SDS011;33517;49.866;8.320;2023-02-28T10:42:54;1.95;;;1.65;;
12867;SDS011;33517;49.866;8.320;2023-02-28T10:45:55;1.77;;;1.65;;
12867;SDS011;33517;49.866;8.320;2023-02-28T10:48:57;1.50;;;1.40;;
12867;SDS011;33517;49.866;8.320;2023-02-28T10:51:54;1.40;;;1.30;;
12867;SDS011;33517;49.866;8.320;2023-02-28T10:54:48;1.40;;;1.17;;
12867;SDS011;33517;49.866;8.320;2023-02-28T10:57:40;3.13;;;1.67;;
12867;SDS011;33517;49.866;8.320;2023-02-28T11:00:32;2.03;;;1.75;;
12867;SDS011;33517;49.866;8.320;2023-02-28T11:03:30;1.65;;;1.55;;
12867;SDS011;33517;49.866;8.320;2023-02-28T11:06:26;3.03;;;1.85;;
12867;SDS011;33517;49.866;8.320;2023-02-28T11:09:22;1.58;;;1.48;;
12867;SDS011;33517;49.866;8.320;2023-02-28T11:12:19;1.60;;;1.50;;
12867;SDS011;33517;49.866;8.320;2023-02-28T11:15:19;1.40;;;1.30;;
12867;SDS011;33517;49.866;8.320;2023-02-28T11:18:19;2.53;;;1.55;;
12867;SDS011;33517;49.866;8.320;2023-02-28T11:21:16;2.85;;;1.80;;
12867;SDS011;33517;49.866;8.320;2023-02-28T11:24:15;2.05;;;1.50;;
12867;SDS011;33517;49.866;8.320;2023-02-28T11:27:24;1.80;;;1.23;;
12867;SDS011;33517;49.866;8.320;2023-02-28T11:30:24;1.95;;;1.73;;
12867;SDS011;33517;49.866;8.320;2023-02-28T11:33:21;11.95;;;1.70;;
12867;SDS011;33517;49.866;8.320;2023-02-28T11:36:16;2.97;;;2.00;;
12867;SDS011;33517;49.866;8.320;2023-02-28T11:39:11;1.80;;;1.48;;
12867;SDS011;33517;49.866;8.320;2023-02-28T11:42:18;3.17;;;2.17;;
12867;SDS011;33517;49.866;8.320;2023-02-28T11:45:21;1.45;;;1.35;;
12867;SDS011;33517;49.866;8.320;2023-02-28T11:48:22;1.77;;;1.63;;
12867;SDS011;33517;49.866;8.320;2023-02-28T11:51:20;3.42;;;2.13;;
12867;SDS011;33517;49.866;8.320;2023-02-28T11:54:26;3.70;;;1.65;;
12867;SDS011;33517;49.866;8.320;2023-02-28T11:57:30;2.20;;;1.20;;
12867;SDS011;33517;49.866;8.320;2023-02-28T12:00:35;1.45;;;1.35;;
12867;SDS011;33517;49.866;8.320;2023-02-28T12:03:39;1.92;;;1.23;;
12867;SDS011;33517;49.866;8.320;2023-02-28T12:06:37;1.55;;;1.45;;
12867;SDS011;33517;49.866;8.320;2023-02-28T12:09:43;1.00;;;1.00;;
12867;SDS011;33517;49.866;8.320;2023-02-28T12:12:45;1.20;;;0.90;;
12867;SDS011;33517;49.866;8.320;2023-02-28T12:15:56;1.10;;;1.02;;
12867;SDS011;33517;49.866;8.320;2023-02-28T12:19:09;2.85;;;1.50;;
12867;SDS011;33517;49.866;8.320;2023-02-28T12:22:15;0.55;;;0.55;;
12867;SDS011;33517;49.866;8.320;2023-02-28T12:25:24;1.80;;;1.55;;
12867;SDS011;33517;49.866;8.320;2023-02-28T12:28:38;1.52;;;1.25;;
12867;SDS011;33517;49.866;8.320;2023-02-28T12:31:35;2.60;;;2.20;;
12867;SDS011;33517;49.866;8.320;2023-02-28T12:34:28;1.75;;;1.65;;
12867;SDS011;33517;49.866;8.320;2023-02-28T12:37:25;8.10;;;2.05;;
12867;SDS011;33517;49.866;8.320;2023-02-28T12:40:25;2.58;;;2.22;;
12867;SDS011;33517;49.866;8.320;2023-02-28T12:43:25;11.25;;;2.10;;
12867;SDS011;33517;49.866;8.320;2023-02-28T12:46:24;3.50;;;1.65;;
12867;SDS011;33517;49.866;8.320;2023-02-28T12:49:19;4.95;;;2.05;;
12867;SDS011;33517;49.866;8.320;2023-02-28T12:52:17;1.83;;;1.73;;
12867;SDS011;33517;49.866;8.320;2023-02-28T12:55:15;3.75;;;1.55;;
12867;SDS011;33517;49.866;8.320;2023-02-28T12:58:17;2.15;;;1.70;;
12867;SDS011;33517;49.866;8.320;2023-02-28T13:01:24;1.98;;;1.70;;
12867;SDS011;33517;49.866;8.320;2023-02-28T13:04:46;2.38;;;1.63;;
12867;SDS011;33517;49.866;8.320;2023-02-28T13:08:24;6.35;;;2.13;;
12867;SDS011;33517;49.866;8.320;2023-02-28T13:11:42;1.85;;;1.52;;
12867;SDS011;33517;49.866;8.320;2023-02-28T13:14:37;2.88;;;1.75;;
12867;SDS011;33517;49.866;8.320;2023-02-28T13:17:29;1.40;;;1.30;;
12867;SDS011;33517;49.866;8.320;2023-02-28T13:20:23;2.28;;;1.88;;
12867;SDS011;33517;49.866;8.320;2023-02-28T13:30:01;2.63;;;1.92;;
12867;SDS011;33517;49.866;8.320;2023-02-28T13:33:23;1.42;;;1.33;;
12867;SDS011;33517;49.866;8.320;2023-02-28T13:36:25;1.77;;;1.67;;
12867;SDS011;33517;49.866;8.320;2023-02-28T13:42:46;2.10;;;1.73;;
12867;SDS011;33517;49.866;8.320;2023-02-28T13:45:44;3.47;;;1.90;;
12867;SDS011;33517;49.866;8.320;2023-02-28T13:49:23;2.58;;;1.70;;
12867;SDS011;33517;49.866;8.320;2023-02-28T13:52:19;2.85;;;1.67;;
12867;SDS011;33517;49.866;8.320;2023-02-28T13:55:23;1.40;;;1.30;;
12867;SDS011;33517;49.866;8.320;2023-02-28T13:58:33;1.85;;;1.65;;
12867;SDS011;33517;49.866;8.320;2023-02-28T14:01:49;1.65;;;1.50;;
12867;SDS011;33517;49.866;8.320;2023-02-28T14:04:56;3.25;;;1.83;;
12867;SDS011;33517;49.866;8.320;2023-02-28T14:07:53;1.55;;;1.45;;
12867;SDS011;33517;49.866;8.320;2023-02-28T14:10:48;2.67;;;2.05;;
12867;SDS011;33517;49.866;8.320;2023-02-28T14:13:42;3.38;;;2.05;;
12867;SDS011;33517;49.866;8.320;2023-02-28T14:16:37;1.67;;;1.58;;
12867;SDS011;33517;49.866;8.320;2023-02-28T14:19:34;2.13;;;1.92;;
12867;SDS011;33517;49.866;8.320;2023-02-28T14:22:44;2.15;;;1.95;;
12867;SDS011;33517;49.866;8.320;2023-02-28T14:25:47;1.77;;;1.67;;
12867;SDS011;33517;49.866;8.320;2023-02-28T14:28:53;1.73;;;1.45;;
12867;SDS011;33517;49.866;8.320;2023-02-28T14:32:01;2.45;;;1.45;;
12867;SDS011;33517;49.866;8.320;2023-02-28T14:34:59;1.77;;;1.42;;
12867;SDS011;33517;49.866;8.320;2023-02-28T14:38:04;2.08;;;1.48;;
12867;SDS011;33517;49.866;8.320;2023-02-28T14:40:58;1.10;;;1.02;;
12867;SDS011;33517;49.866;8.320;2023-02-28T14:43:55;1.65;;;1.35;;
12867;SDS011;33517;49.866;8.320;2023-02-28T14:46:49;0.77;;;0.75;;
12867;SDS011;33517;49.866;8.320;2023-02-28T14:49:44;0.77;;;0.75;;
12867;SDS011;33517;49.866;8.320;2023-02-28T14:52:38;0.90;;;0.90;;
12867;SDS011;33517;49.866;8.320;2023-02-28T14:55:33;1.45;;;1.40;;
12867;SDS011;33517;49.866;8.320;2023-02-28T14:58:27;1.25;;;1.23;;
12867;SDS011;33517;49.866;8.320;2023-02-28T15:01:21;1.30;;;0.68;;
12867;SDS011;33517;49.866;8.320;2023-02-28T15:04:18;0.63;;;0.50;;
12867;SDS011;33517;49.866;8.320;2023-02-28T15:07:16;0.90;;;0.77;;
12867;SDS011;33517;49.866;8.320;2023-02-28T15:10:13;3.20;;;1.10;;
12867;SDS011;33517;49.866;8.320;2023-02-28T15:13:11;1.65;;;0.60;;
12867;SDS011;33517;49.866;8.320;2023-02-28T15:16:05;1.52;;;1.15;;
12867;SDS011;33517;49.866;8.320;2023-02-28T15:19:02;1.63;;;1.52;;
12867;SDS011;33517;49.866;8.320;2023-02-28T15:21:57;1.13;;;0.95;;
12867;SDS011;33517;49.866;8.320;2023-02-28T15:24:51;0.82;;;0.80;;
12867;SDS011;33517;49.866;8.320;2023-02-28T15:27:45;0.52;;;0.52;;
12867;SDS011;33517;49.866;8.320;2023-02-28T15:30:40;0.80;;;0.80;;
12867;SDS011;33517;49.866;8.320;2023-02-28T15:33:51;0.60;;;0.60;;
12867;SDS011;33517;49.866;8.320;2023-02-28T15:36:44;3.78;;;3.03;;
12867;SDS011;33517;49.866;8.320;2023-02-28T15:39:41;2.75;;;2.17;;
12867;SDS011;33517;49.866;8.320;2023-02-28T15:42:35;1.13;;;1.02;;
12867;SDS011;33517;49.866;8.320;2023-02-28T15:45:30;1.67;;;0.90;;
12867;SDS011;33517;49.866;8.320;2023-02-28T15:48:28;0.95;;;0.95;;
12867;SDS011;33517;49.866;8.320;2023-02-28T15:51:22;0.90;;;0.90;;
12867;SDS011;33517;49.866;8.320;2023-02-28T15:54:18;0.57;;;0.57;;
12867;SDS011;33517;49.866;8.320;2023-02-28T15:57:13;1.92;;;1.83;;
12867;SDS011;33517;49.866;8.320;2023-02-28T16:00:09;1.60;;;1.50;;
12867;SDS011;33517;49.866;8.320;2023-02-28T16:06:26;0.98;;;0.98;;
12867;SDS011;33517;49.866;8.320;2023-02-28T16:09:24;0.70;;;0.70;;
12867;SDS011;33517;49.866;8.320;2023-02-28T16:12:17;1.08;;;0.80;;
12867;SDS011;33517;49.866;8.320;2023-02-28T16:15:17;0.68;;;0.68;;
12867;SDS011;33517;49.866;8.320;2023-02-28T16:18:11;0.63;;;0.63;;
12867;SDS011;33517;49.866;8.320;2023-02-28T16:21:05;1.00;;;0.75;;
12867;SDS011;33517;49.866;8.320;2023-02-28T16:23:57;1.30;;;1.20;;
12867;SDS011;33517;49.866;8.320;2023-02-28T16:26:49;0.80;;;0.80;;
12867;SDS011;33517;49.866;8.320;2023-02-28T16:29:43;1.38;;;0.85;;
12867;SDS011;33517;49.866;8.320;2023-02-28T16:32:36;0.70;;;0.70;;
12867;SDS011;33517;49.866;8.320;2023-02-28T16:35:28;1.27;;;0.98;;
12867;SDS011;33517;49.866;8.320;2023-02-28T16:38:21;1.67;;;0.90;;
12867;SDS011;33517;49.866;8.320;2023-02-28T16:41:14;1.58;;;1.45;;
12867;SDS011;33517;49.866;8.320;2023-02-28T16:44:09;0.98;;;0.98;;
12867;SDS011;33517;49.866;8.320;2023-02-28T16:47:04;1.02;;;0.98;;
12867;SDS011;33517;49.866;8.320;2023-02-28T16:49:56;0.88;;;0.88;;
12867;SDS011;33517;49.866;8.320;2023-02-28T16:52:48;1.30;;;1.20;;
12867;SDS011;33517;49.866;8.320;2023-02-28T16:55:43;1.33;;;1.25;;
12867;SDS011;33517;49.866;8.320;2023-02-28T16:58:35;1.40;;;1.30;;
12867;SDS011;33517;49.866;8.320;2023-02-28T17:01:27;0.98;;;0.98;;
12867;SDS011;33517;49.866;8.320;2023-02-28T17:04:19;1.05;;;1.02;;
12867;SDS011;33517;49.866;8.320;2023-02-28T17:07:11;1.08;;;1.08;;
12867;SDS011;33517;49.866;8.320;2023-02-28T17:10:09;0.93;;;0.63;;
12867;SDS011;33517;49.866;8.320;2023-02-28T17:13:06;0.82;;;0.82;;
12867;SDS011;33517;49.866;8.320;2023-02-28T17:15:59;1.00;;;0.93;;
12867;SDS011;33517;49.866;8.320;2023-02-28T17:18:51;1.08;;;1.08;;
12867;SDS011;33517;49.866;8.320;2023-02-28T17:21:45;1.27;;;1.20;;
12867;SDS011;33517;49.866;8.320;2023-02-28T17:24:37;1.48;;;1.38;;
12867;SDS011;33517;49.866;8.320;2023-02-28T17:27:28;1.48;;;1.38;;
12867;SDS011;33517;49.866;8.320;2023-02-28T17:30:23;1.60;;;1.48;;
12867;SDS011;33517;49.866;8.320;2023-02-28T17:33:17;0.75;;;0.75;;
12867;SDS011;33517;49.866;8.320;2023-02-28T17:36:10;1.80;;;1.70;;
12867;SDS011;33517;49.866;8.320;2023-02-28T17:39:05;1.67;;;1.58;;
12867;SDS011;33517;49.866;8.320;2023-02-28T17:42:00;0.98;;;0.93;;
12867;SDS011;33517;49.866;8.320;2023-02-28T17:44:52;1.42;;;1.35;;
12867;SDS011;33517;49.866;8.320;2023-02-28T17:47:46;1.33;;;1.23;;
12867;SDS011;33517;49.866;8.320;2023-02-28T17:50:40;0.75;;;0.75;;
12867;SDS011;33517;49.866;8.320;2023-02-28T17:53:32;1.60;;;1.50;;
12867;SDS011;33517;49.866;8.320;2023-02-28T17:56:24;0.95;;;0.85;;
12867;SDS011;33517;49.866;8.320;2023-02-28T17:59:17;1.35;;;1.15;;
12867;SDS011;33517;49.866;8.320;2023-02-28T18:02:09;1.60;;;1.17;;